Time;durP1;ratioP1;P1;durP2;ratioP2;P2;SDS_P1;SDS_P2;PMS_P1;PMS_P2;Temp;Humidity;BMP_temperature;BMP_pressure;BME280_temperature;BME280_humidity;BME280_pressure;Samples;Min_cycle;Max_cycle;Signal;HPM_P1;HPM_P2
2022/08/06 00:00:05;;;;;;;2.60;1.10;;;12.30;99.90;;;;;;5050214;28;20052;-53
2022/08/06 00:02:31;;;;;;;4.20;1.40;;;12.20;99.90;;;;;;5068009;28;20136;-52
2022/08/06 00:05:00;;;;;;;3.25;1.20;;;12.30;99.90;;;;;;5068041;28;20083;-51
2022/08/06 00:07:27;;;;;;;3.80;1.50;;;12.30;99.90;;;;;;5050423;28;20061;-51
2022/08/06 00:09:53;;;;;;;3.40;1.42;;;12.30;99.90;;;;;;5049787;28;20060;-48
2022/08/06 00:12:19;;;;;;;2.40;1.10;;;12.20;99.90;;;;;;5049315;28;20059;-49
2022/08/06 00:14:46;;;;;;;3.35;1.20;;;12.20;99.90;;;;;;5067328;28;20088;-47
2022/08/06 00:17:12;;;;;;;2.45;1.05;;;12.20;99.90;;;;;;5050452;28;20056;-53
2022/08/06 00:19:38;;;;;;;2.67;1.27;;;12.10;99.90;;;;;;5049543;28;20055;-48
2022/08/06 00:22:04;;;;;;;2.45;1.13;;;12.00;99.90;;;;;;5067142;28;20124;-49
2022/08/06 00:24:36;;;;;;;3.25;1.27;;;11.90;99.90;;;;;;5066541;28;20059;-51
2022/08/06 00:27:02;;;;;;;5.53;1.33;;;11.90;99.90;;;;;;5066813;28;20076;-48
2022/08/06 00:29:28;;;;;;;5.85;1.77;;;11.80;99.90;;;;;;5066845;28;20503;-49
2022/08/06 00:31:54;;;;;;;2.85;1.30;;;11.80;99.90;;;;;;5066812;28;20064;-49
2022/08/06 00:34:20;;;;;;;3.00;1.33;;;11.80;99.90;;;;;;5066612;28;20041;-47
2022/08/06 00:36:46;;;;;;;3.45;1.30;;;11.80;99.90;;;;;;5048126;28;20167;-46
2022/08/06 00:39:13;;;;;;;3.05;1.38;;;11.90;99.90;;;;;;5066377;28;20514;-47
2022/08/06 00:41:40;;;;;;;2.92;1.27;;;11.90;99.90;;;;;;5046734;28;20498;-50
2022/08/06 00:44:06;;;;;;;3.45;1.38;;;11.80;99.90;;;;;;5066407;28;20053;-48
2022/08/06 00:46:32;;;;;;;2.20;1.10;;;11.80;99.90;;;;;;5066232;28;20796;-50
2022/08/06 00:48:58;;;;;;;2.38;1.52;;;11.70;99.90;;;;;;5046787;28;20056;-50
2022/08/06 00:51:24;;;;;;;4.50;1.73;;;11.60;99.90;;;;;;5047071;28;20078;-52
2022/08/06 00:53:51;;;;;;;2.45;1.15;;;11.60;99.90;;;;;;5066484;28;20076;-51
2022/08/06 00:56:17;;;;;;;3.15;1.30;;;11.50;99.90;;;;;;5066439;28;20584;-50
2022/08/06 00:58:44;;;;;;;3.67;1.25;;;11.40;99.90;;;;;;5069067;28;20088;-52
2022/08/06 01:01:10;;;;;;;3.35;1.33;;;11.40;99.90;;;;;;5066622;28;20185;-49
2022/08/06 01:03:37;;;;;;;2.38;1.30;;;11.40;99.90;;;;;;5046824;28;20044;-51
2022/08/06 01:06:04;;;;;;;3.28;1.80;;;11.40;99.90;;;;;;5067077;28;20052;-47
2022/08/06 01:08:30;;;;;;;2.58;1.35;;;11.40;99.90;;;;;;5066780;28;20052;-50
2022/08/06 01:10:56;;;;;;;2.45;1.35;;;11.30;99.90;;;;;;5067242;28;20052;-48
2022/08/06 01:13:22;;;;;;;2.47;1.50;;;11.30;99.90;;;;;;5060449;28;20041;-48
2022/08/06 01:15:58;;;;;;;2.58;1.48;;;11.30;99.90;;;;;;5047660;28;20139;-49
2022/08/06 01:18:35;;;;;;;3.72;1.30;;;11.30;99.90;;;;;;5048621;28;20048;-49
2022/08/06 01:21:42;;;;;;;3.75;1.33;;;11.30;99.90;;;;;;5067289;28;20506;-48
2022/08/06 01:24:30;;;;;;;5.60;1.50;;;11.30;99.90;;;;;;5066782;28;20036;-47
2022/08/06 01:27:22;;;;;;;3.63;1.40;;;11.20;99.90;;;;;;5066838;28;20511;-47
2022/08/06 01:30:00;;;;;;;2.85;1.73;;;11.20;99.90;;;;;;5066033;28;20135;-51
2022/08/06 01:32:34;;;;;;;4.30;1.70;;;11.20;99.90;;;;;;5066787;28;20057;-48
2022/08/06 01:35:12;;;;;;;;;;;11.20;99.90;;;;;;5069221;28;20135;-51
2022/08/06 01:37:59;;;;;;;3.38;1.70;;;11.20;99.90;;;;;;5068490;28;20011;-49
2022/08/06 01:40:34;;;;;;;2.22;1.67;;;11.30;99.90;;;;;;5069617;28;20052;-50
2022/08/06 01:43:03;;;;;;;2.50;1.33;;;11.20;99.90;;;;;;5047418;28;20053;-50
2022/08/06 01:45:38;;;;;;;4.22;1.60;;;11.30;99.90;;;;;;5068343;28;20414;-49
2022/08/06 01:48:16;;;;;;;3.05;1.73;;;11.20;99.90;;;;;;5068100;28;20048;-48
2022/08/06 01:50:48;;;;;;;3.05;1.98;;;11.20;99.90;;;;;;5067954;28;20056;-50
2022/08/06 01:53:21;;;;;;;2.47;1.63;;;11.20;99.90;;;;;;5048771;28;20052;-48
2022/08/06 01:55:53;;;;;;;5.00;2.00;;;11.30;99.90;;;;;;5066270;28;20056;-49
2022/08/06 01:58:26;;;;;;;2.40;1.80;;;11.30;99.90;;;;;;5046044;28;20442;-47
2022/08/06 02:00:54;;;;;;;2.67;1.60;;;11.30;99.90;;;;;;5064418;28;20438;-48
2022/08/06 02:03:39;;;;;;;3.63;1.60;;;11.30;99.90;;;;;;5066052;28;20048;-49
2022/08/06 02:06:07;;;;;;;2.65;2.00;;;11.30;99.90;;;;;;5064622;28;20128;-48
2022/08/06 02:08:37;;;;;;;3.05;1.40;;;11.20;99.90;;;;;;5064645;28;20045;-48
2022/08/06 02:11:04;;;;;;;2.55;1.77;;;11.20;99.90;;;;;;5064934;28;20048;-47
2022/08/06 02:13:33;;;;;;;2.15;1.35;;;11.20;99.90;;;;;;5045659;28;20063;-52
2022/08/06 02:16:03;;;;;;;3.75;1.73;;;11.20;99.90;;;;;;5064442;28;20612;-50
2022/08/06 02:18:34;;;;;;;2.88;1.50;;;11.10;99.90;;;;;;5045537;28;20515;-51
2022/08/06 02:21:03;;;;;;;2.22;1.50;;;11.10;99.90;;;;;;5045983;28;20060;-49
2022/08/06 02:23:30;;;;;;;4.32;2.00;;;11.00;99.90;;;;;;5064798;28;20511;-47
2022/08/06 02:25:58;;;;;;;2.67;1.88;;;11.00;99.90;;;;;;5064541;28;20108;-50
2022/08/06 02:28:27;;;;;;;4.60;1.70;;;11.00;99.90;;;;;;5063971;28;20453;-50
2022/08/06 02:30:56;;;;;;;4.72;1.45;;;11.00;99.90;;;;;;5039219;28;20095;-49
2022/08/06 02:33:23;;;;;;;2.67;1.70;;;11.00;99.90;;;;;;5058730;28;20650;-47
2022/08/06 02:36:24;;;;;;;2.10;1.60;;;11.00;99.90;;;;;;5044885;28;20053;-50
2022/08/06 02:39:06;;;;;;;4.25;1.60;;;11.10;99.90;;;;;;5040298;28;20057;-49
2022/08/06 02:41:43;;;;;;;3.03;1.60;;;11.10;99.90;;;;;;5044413;28;20047;-51
2022/08/06 02:44:14;;;;;;;3.38;1.70;;;11.10;99.90;;;;;;5044637;28;20518;-49
2022/08/06 02:46:48;;;;;;;2.17;1.63;;;11.10;99.90;;;;;;5044309;28;20061;-49
2022/08/06 02:49:24;;;;;;;3.00;2.30;;;11.10;99.90;;;;;;5044311;28;20052;-51
2022/08/06 02:52:00;;;;;;;3.00;1.70;;;11.00;99.90;;;;;;5044102;28;20503;-50
2022/08/06 02:54:34;;;;;;;2.05;1.80;;;11.00;99.90;;;;;;5044237;28;20060;-48
2022/08/06 02:57:04;;;;;;;4.35;2.15;;;10.90;99.90;;;;;;5042800;28;20068;-50
2022/08/06 02:59:35;;;;;;;3.25;2.25;;;10.90;99.90;;;;;;5042409;28;20068;-48
2022/08/06 03:02:02;;;;;;;3.30;2.25;;;10.90;99.90;;;;;;5043952;28;20094;-48
2022/08/06 03:04:31;;;;;;;5.40;2.72;;;10.90;99.90;;;;;;5043556;28;20045;-46
2022/08/06 03:07:02;;;;;;;3.00;2.63;;;10.80;99.90;;;;;;5042976;28;20564;-48
2022/08/06 03:09:28;;;;;;;3.70;2.80;;;10.80;99.90;;;;;;5043633;28;20056;-49
2022/08/06 03:11:57;;;;;;;3.60;3.30;;;10.80;99.90;;;;;;5043812;28;20059;-50
2022/08/06 03:14:25;;;;;;;8.50;3.30;;;10.80;99.90;;;;;;5039798;28;20060;-48
2022/08/06 03:16:53;;;;;;;4.40;3.42;;;10.70;99.90;;;;;;5056350;28;20503;-47
2022/08/06 03:19:20;;;;;;;3.42;3.10;;;10.70;99.90;;;;;;5043117;28;20053;-47
2022/08/06 03:21:48;;;;;;;6.18;3.03;;;10.70;99.90;;;;;;5043892;28;20438;-46
2022/08/06 03:24:15;;;;;;;4.32;3.05;;;10.70;99.90;;;;;;5043896;28;20826;-49
2022/08/06 03:26:42;;;;;;;4.50;3.00;;;10.70;99.90;;;;;;5044230;28;20071;-48
2022/08/06 03:29:10;;;;;;;3.90;3.13;;;10.60;99.90;;;;;;5043624;28;20045;-48
2022/08/06 03:31:37;;;;;;;3.45;2.70;;;10.60;99.90;;;;;;5060051;28;20056;-47
2022/08/06 03:34:05;;;;;;;5.10;3.00;;;10.60;99.90;;;;;;5063522;28;20044;-46
2022/08/06 03:36:33;;;;;;;4.82;3.50;;;10.70;99.90;;;;;;5064013;28;20091;-46
2022/08/06 03:39:07;;;;;;;3.85;3.05;;;10.80;99.90;;;;;;5062999;28;20051;-49
2022/08/06 03:41:36;;;;;;;3.97;2.88;;;10.90;99.90;;;;;;5062760;28;20189;-49
2022/08/06 03:44:03;;;;;;;4.75;2.92;;;10.90;99.90;;;;;;5056973;28;20506;-51
2022/08/06 03:46:37;;;;;;;5.80;2.60;;;11.00;99.90;;;;;;5059609;28;20049;-47
2022/08/06 03:49:07;;;;;;;3.53;2.60;;;11.10;99.90;;;;;;5063523;28;20139;-52
2022/08/06 03:51:36;;;;;;;2.78;2.47;;;11.20;99.90;;;;;;5062206;28;20914;-47
2022/08/06 03:54:04;;;;;;;3.42;2.75;;;11.30;99.90;;;;;;5063653;28;20061;-47
2022/08/06 03:56:34;;;;;;;5.20;2.90;;;11.30;99.90;;;;;;5045715;28;20098;-51
2022/08/06 03:59:04;;;;;;;4.55;2.70;;;11.30;99.90;;;;;;5063372;28;20131;-49
2022/08/06 04:01:36;;;;;;;10.55;3.00;;;11.40;99.90;;;;;;5063329;28;20105;-55
2022/08/06 04:04:03;;;;;;;2.78;2.45;;;11.50;99.90;;;;;;5063683;28;20052;-48
2022/08/06 04:06:30;;;;;;;3.28;2.40;;;11.50;99.90;;;;;;5045072;28;20143;-47
2022/08/06 04:08:59;;;;;;;5.05;2.25;;;11.60;99.90;;;;;;5062387;28;20110;-48
2022/08/06 04:11:25;;;;;;;5.90;2.40;;;11.60;99.90;;;;;;5030029;28;20053;-49
2022/08/06 04:13:53;;;;;;;2.72;2.05;;;11.70;99.90;;;;;;5056189;28;20041;-48
2022/08/06 04:16:20;;;;;;;3.67;1.90;;;11.80;99.90;;;;;;5064325;28;20084;-51
2022/08/06 04:18:47;;;;;;;3.40;2.20;;;11.90;99.90;;;;;;5067500;28;20121;-47
2022/08/06 04:21:20;;;;;;;3.10;2.17;;;12.00;99.90;;;;;;5066707;28;20052;-50
2022/08/06 04:23:47;;;;;;;2.70;2.00;;;12.00;99.90;;;;;;5066511;28;20053;-48
2022/08/06 04:26:19;;;;;;;4.60;2.30;;;12.00;99.90;;;;;;5066374;28;20685;-47
2022/08/06 04:28:51;;;;;;;4.80;2.10;;;12.00;99.90;;;;;;5067462;28;20055;-46
2022/08/06 04:31:19;;;;;;;5.85;2.30;;;12.10;99.90;;;;;;5067143;28;20057;-46
2022/08/06 04:33:51;;;;;;;2.83;2.13;;;12.10;99.90;;;;;;5049056;28;20091;-47
2022/08/06 04:36:17;;;;;;;4.55;2.20;;;12.10;99.90;;;;;;5048497;28;20056;-51
2022/08/06 04:38:45;;;;;;;2.75;2.00;;;12.10;99.90;;;;;;5047961;28;20056;-47
2022/08/06 04:41:12;;;;;;;4.50;2.00;;;12.10;99.90;;;;;;5066822;28;20063;-47
2022/08/06 04:43:39;;;;;;;3.88;1.90;;;12.20;99.90;;;;;;5066895;28;20402;-48
2022/08/06 04:46:06;;;;;;;4.60;2.83;;;12.20;99.90;;;;;;5066320;28;20048;-47
2022/08/06 04:48:34;;;;;;;5.72;2.20;;;12.20;99.90;;;;;;5066352;28;20586;-48
2022/08/06 04:51:04;;;;;;;6.18;2.03;;;12.30;99.90;;;;;;5067317;28;20052;-53
2022/08/06 04:53:38;;;;;;;2.42;2.03;;;12.40;99.90;;;;;;5065450;28;20115;-48
2022/08/06 04:56:05;;;;;;;3.50;1.65;;;13.10;99.90;;;;;;5062791;28;20801;-52
2022/08/06 04:58:32;;;;;;;2.45;1.63;;;14.40;99.90;;;;;;5065775;28;20118;-48
2022/08/06 05:01:00;;;;;;;3.05;1.50;;;15.80;99.90;;;;;;5064410;28;20052;-47
2022/08/06 05:03:26;;;;;;;4.13;1.40;;;17.00;99.90;;;;;;5063815;28;20258;-49
2022/08/06 05:06:08;;;;;;;7.30;1.80;;;18.00;99.90;;;;;;5064693;28;20063;-49
2022/08/06 05:08:42;;;;;;;3.97;1.35;;;18.90;99.90;;;;;;5065772;28;20046;-47
2022/08/06 05:11:21;;;;;;;1.85;1.08;;;19.60;99.90;;;;;;5065134;28;20052;-48
2022/08/06 05:13:54;;;;;;;2.67;1.10;;;20.30;99.90;;;;;;5064032;28;20052;-46
2022/08/06 05:16:20;;;;;;;;;;;20.70;99.90;;;;;;5064680;28;20044;-53
2022/08/06 05:18:51;;;;;;;1.77;0.93;;;20.50;99.90;;;;;;5064364;28;19939;-50
2022/08/06 05:21:23;;;;;;;2.58;0.95;;;21.00;99.90;;;;;;5057714;28;20613;-49
2022/08/06 05:23:53;;;;;;;1.45;1.00;;;21.70;99.90;;;;;;5046121;28;20048;-50
2022/08/06 05:26:20;;;;;;;2.72;0.95;;;22.10;99.70;;;;;;5064330;28;20055;-48
2022/08/06 05:28:47;;;;;;;2.88;1.23;;;22.50;98.80;;;;;;5063677;28;20060;-50
2022/08/06 05:31:13;;;;;;;1.73;1.13;;;22.80;98.50;;;;;;5063980;28;20140;-49
2022/08/06 05:33:40;;;;;;;2.90;0.95;;;23.00;97.50;;;;;;5064027;28;20072;-50
2022/08/06 05:36:08;;;;;;;1.92;1.10;;;23.10;97.60;;;;;;5044031;28;20531;-49
2022/08/06 05:38:37;;;;;;;1.85;1.00;;;23.30;97.50;;;;;;5064169;28;20052;-51
2022/08/06 05:41:09;;;;;;;2.28;1.20;;;23.80;97.50;;;;;;5063475;28;20044;-52
2022/08/06 05:43:39;;;;;;;1.00;0.83;;;24.40;96.80;;;;;;5045747;28;20106;-50
2022/08/06 05:46:11;;;;;;;2.08;1.00;;;24.30;96.70;;;;;;5063712;28;20052;-47
2022/08/06 05:48:44;;;;;;;1.80;0.77;;;23.70;97.40;;;;;;5062982;28;20068;-48
2022/08/06 05:51:26;;;;;;;2.78;0.90;;;23.60;97.60;;;;;;5045243;28;20056;-53
2022/08/06 05:54:00;;;;;;;2.33;1.07;;;22.90;97.30;;;;;;5063550;28;20044;-49
2022/08/06 05:56:40;;;;;;;1.75;0.80;;;21.70;98.70;;;;;;5063135;28;20987;-48
2022/08/06 05:59:18;;;;;;;1.90;0.85;;;20.50;99.80;;;;;;5035060;28;20052;-50
2022/08/06 06:01:46;;;;;;;1.70;0.80;;;19.50;99.90;;;;;;5062647;28;20037;-49
2022/08/06 06:04:13;;;;;;;2.97;1.02;;;18.70;99.90;;;;;;5044384;28;20105;-52
2022/08/06 06:06:39;;;;;;;2.38;1.00;;;18.10;99.90;;;;;;5063081;28;20059;-50
2022/08/06 06:09:06;;;;;;;3.50;1.23;;;17.60;99.90;;;;;;5044003;28;20052;-50
2022/08/06 06:11:32;;;;;;;1.23;0.90;;;17.30;99.90;;;;;;5062699;28;20048;-46
2022/08/06 06:13:59;;;;;;;1.98;0.90;;;17.80;99.90;;;;;;5055881;28;20490;-51
2022/08/06 06:16:31;;;;;;;4.65;0.98;;;19.70;99.90;;;;;;5063667;28;20067;-52
2022/08/06 06:19:06;;;;;;;4.13;1.10;;;21.80;99.90;;;;;;5063536;28;20072;-51
2022/08/06 06:21:39;;;;;;;1.70;1.05;;;23.30;99.90;;;;;;5062508;28;20052;-52
2022/08/06 06:24:19;;;;;;;;;;;24.50;98.40;;;;;;5044769;28;20109;-49
2022/08/06 06:27:05;;;;;;;2.20;0.90;;;25.30;97.00;;;;;;5045016;28;19985;-51
2022/08/06 06:29:47;;;;;;;2.88;1.10;;;26.10;95.60;;;;;;5044052;28;20498;-49
2022/08/06 06:32:51;;;;;;;3.55;1.23;;;26.60;95.20;;;;;;5045088;28;20099;-54
2022/08/06 06:35:41;;;;;;;2.55;1.02;;;27.00;94.20;;;;;;5063422;28;20574;-51
2022/08/06 06:38:34;;;;;;;2.10;1.08;;;27.60;92.90;;;;;;5062948;28;20048;-51
2022/08/06 06:41:09;;;;;;;;;;;27.90;92.20;;;;;;5043643;28;20101;-53
2022/08/06 06:44:04;;;;;;;4.13;1.20;;;28.00;90.80;;;;;;5063521;28;19982;-51
2022/08/06 06:46:56;;;;;;;2.40;1.15;;;27.90;90.90;;;;;;5053708;28;20139;-52
2022/08/06 06:49:27;;;;;;;4.60;1.23;;;28.50;90.50;;;;;;5062546;28;20059;-52
2022/08/06 06:52:05;;;;;;;1.83;0.93;;;29.00;90.50;;;;;;5062536;28;20052;-51
2022/08/06 06:54:43;;;;;;;2.20;0.82;;;29.20;90.20;;;;;;5062357;28;20048;-51
2022/08/06 06:57:11;;;;;;;4.65;1.58;;;29.40;88.80;;;;;;5039357;28;20048;-54
2022/08/06 06:59:43;;;;;;;3.70;1.00;;;29.10;87.40;;;;;;5062463;28;20084;-51
2022/08/06 07:02:19;;;;;;;3.47;1.17;;;29.50;88.70;;;;;;5062091;28;20063;-54
2022/08/06 07:04:47;;;;;;;2.22;1.08;;;29.60;85.90;;;;;;5063590;28;20082;-53
2022/08/06 07:07:14;;;;;;;4.03;1.33;;;29.70;86.80;;;;;;5062769;28;20055;-51
2022/08/06 07:09:41;;;;;;;2.47;1.15;;;29.60;86.40;;;;;;5062216;28;20049;-52
2022/08/06 07:12:09;;;;;;;3.47;1.20;;;29.40;87.40;;;;;;5062721;28;20048;-53
2022/08/06 07:14:52;;;;;;;5.10;1.40;;;29.20;86.80;;;;;;5033891;28;20057;-52
2022/08/06 07:17:18;;;;;;;4.00;1.60;;;28.30;87.10;;;;;;5057175;28;20052;-51
2022/08/06 07:19:47;;;;;;;4.13;1.50;;;27.60;88.30;;;;;;5063288;28;20056;-53
2022/08/06 07:22:14;;;;;;;6.13;1.70;;;26.80;89.30;;;;;;5062331;28;20048;-54
2022/08/06 07:24:41;;;;;;;3.15;1.30;;;26.70;89.60;;;;;;5044882;28;20058;-55
2022/08/06 07:27:09;;;;;;;3.10;1.80;;;26.30;90.70;;;;;;5063074;28;20102;-53
2022/08/06 07:29:36;;;;;;;4.72;1.95;;;26.10;89.30;;;;;;5063052;28;20060;-53
2022/08/06 07:32:03;;;;;;;3.33;1.58;;;25.80;90.20;;;;;;5044677;28;20061;-52
2022/08/06 07:34:30;;;;;;;3.97;2.20;;;25.90;90.30;;;;;;5062708;28;20053;-55
2022/08/06 07:36:57;;;;;;;4.22;2.10;;;25.70;90.00;;;;;;5062600;28;20431;-53
2022/08/06 07:39:34;;;;;;;4.75;1.90;;;25.60;90.30;;;;;;5044461;28;20071;-53
2022/08/06 07:42:06;;;;;;;6.90;2.22;;;25.60;90.00;;;;;;5061458;28;20391;-53
2022/08/06 07:44:36;;;;;;;3.60;1.98;;;25.30;90.20;;;;;;5062313;28;20045;-52
2022/08/06 07:47:04;;;;;;;3.85;2.22;;;25.30;90.70;;;;;;5044851;28;20766;-53
2022/08/06 07:49:41;;;;;;;5.32;2.35;;;25.10;90.30;;;;;;5060739;28;20048;-54
2022/08/06 07:52:12;;;;;;;3.63;2.53;;;25.10;90.60;;;;;;5064440;28;20084;-52
2022/08/06 07:54:40;;;;;;;5.93;2.60;;;24.90;90.50;;;;;;5065991;28;20048;-53
2022/08/06 07:57:07;;;;;;;4.15;2.17;;;24.70;91.00;;;;;;5068477;28;20063;-53
2022/08/06 07:59:33;;;;;;;6.47;2.88;;;24.70;90.80;;;;;;5066401;28;20586;-53
2022/08/06 08:02:03;;;;;;;4.72;2.45;;;24.60;89.30;;;;;;5066026;28;20051;-58
2022/08/06 08:07:16;;;;;;;4.72;2.20;;;24.40;90.70;;;;;;5066392;28;20066;-54
2022/08/06 08:09:44;;;;;;;4.72;2.30;;;24.40;90.90;;;;;;5065318;28;20116;-54
2022/08/06 08:12:15;;;;;;;5.07;2.53;;;24.40;90.90;;;;;;5065195;28;20037;-53
2022/08/06 08:14:43;;;;;;;5.57;2.50;;;24.40;91.20;;;;;;5065348;28;20048;-54
2022/08/06 08:17:11;;;;;;;3.13;2.05;;;24.40;90.60;;;;;;5044107;28;20548;-53
2022/08/06 08:19:38;;;;;;;5.28;2.08;;;24.20;90.70;;;;;;5060189;28;20106;-57
2022/08/06 08:22:10;;;;;;;4.47;2.38;;;24.20;90.80;;;;;;5064733;28;20052;-55
2022/08/06 08:24:38;;;;;;;3.53;2.25;;;24.30;90.60;;;;;;5047384;28;20088;-54
2022/08/06 08:27:08;;;;;;;3.75;2.45;;;24.10;91.00;;;;;;5065011;28;20655;-53
2022/08/06 08:29:34;;;;;;;4.47;2.58;;;24.00;90.40;;;;;;5047368;28;20464;-54
2022/08/06 08:32:02;;;;;;;3.22;2.20;;;24.10;90.20;;;;;;5064798;28;20057;-54
2022/08/06 08:34:29;;;;;;;3.67;2.17;;;24.20;90.10;;;;;;5065203;28;20128;-57
2022/08/06 08:36:56;;;;;;;3.33;2.30;;;24.40;90.30;;;;;;5065483;28;20055;-54
2022/08/06 08:39:22;;;;;;;4.45;2.10;;;24.10;90.30;;;;;;5066236;28;20967;-56
2022/08/06 08:41:57;;;;;;;5.25;2.63;;;23.90;90.80;;;;;;5066749;28;20473;-56
2022/08/06 08:44:25;;;;;;;4.47;2.45;;;23.90;91.10;;;;;;5064517;28;20048;-56
2022/08/06 08:46:53;;;;;;;3.65;2.90;;;24.00;91.00;;;;;;5046554;28;20092;-56
2022/08/06 08:49:39;;;;;;;3.67;2.30;;;24.00;90.80;;;;;;5046171;28;20743;-55
2022/08/06 08:52:08;;;;;;;5.57;2.15;;;24.10;91.10;;;;;;5046748;28;20574;-56
2022/08/06 08:54:41;;;;;;;4.03;2.60;;;24.00;90.50;;;;;;5065075;28;20048;-53
2022/08/06 08:57:08;;;;;;;4.70;2.65;;;24.20;90.60;;;;;;5065996;28;20111;-56
2022/08/06 08:59:40;;;;;;;3.97;2.50;;;24.00;90.30;;;;;;5065142;28;20059;-57
2022/08/06 09:02:09;;;;;;;3.55;2.30;;;24.10;88.80;;;;;;5062325;28;20439;-56
2022/08/06 09:04:36;;;;;;;3.60;2.10;;;24.10;88.00;;;;;;5064037;28;20048;-55
2022/08/06 09:07:03;;;;;;;4.25;2.72;;;24.00;88.00;;;;;;5064575;28;20052;-54
2022/08/06 09:09:32;;;;;;;3.92;2.40;;;23.80;90.30;;;;;;5046301;28;20120;-55
2022/08/06 09:11:59;;;;;;;4.00;2.50;;;23.60;90.50;;;;;;5064385;28;20072;-56
2022/08/06 09:14:27;;;;;;;3.95;2.42;;;23.00;90.90;;;;;;5037218;28;20061;-54
2022/08/06 09:16:53;;;;;;;4.57;2.75;;;22.80;91.20;;;;;;5060250;28;20136;-57
2022/08/06 09:19:19;;;;;;;5.35;2.40;;;22.50;91.40;;;;;;5063443;28;20457;-56
2022/08/06 09:21:46;;;;;;;3.45;2.95;;;22.30;91.80;;;;;;5065558;28;20087;-55
2022/08/06 09:24:12;;;;;;;5.05;2.88;;;22.70;92.00;;;;;;5064088;28;20076;-54
2022/08/06 09:26:59;;;;;;;5.50;2.33;;;23.00;91.60;;;;;;5064513;28;20048;-56
2022/08/06 09:29:25;;;;;;;4.07;2.20;;;23.30;91.40;;;;;;5043043;28;20581;-55
2022/08/06 09:31:52;;;;;;;6.03;2.40;;;23.40;90.40;;;;;;5058138;28;20056;-56
2022/08/06 09:34:18;;;;;;;3.55;1.90;;;23.40;90.00;;;;;;5063461;28;20133;-56
2022/08/06 09:36:46;;;;;;;5.10;2.42;;;23.80;90.40;;;;;;5063593;28;20493;-56
2022/08/06 09:39:12;;;;;;;4.45;2.60;;;23.70;90.00;;;;;;5063774;28;20117;-57
2022/08/06 09:41:49;;;;;;;3.72;2.38;;;23.60;90.00;;;;;;5063478;28;20387;-57
2022/08/06 09:44:15;;;;;;;4.68;2.30;;;23.70;89.90;;;;;;5063700;28;20093;-56
2022/08/06 09:46:49;;;;;;;4.38;2.20;;;23.90;87.10;;;;;;5043259;28;20370;-55
2022/08/06 09:49:18;;;;;;;4.47;2.30;;;24.10;90.00;;;;;;5043899;28;20045;-56
2022/08/06 09:51:44;;;;;;;3.15;1.90;;;24.50;89.90;;;;;;5043857;28;20045;-56
2022/08/06 09:54:20;;;;;;;3.30;1.90;;;24.50;89.70;;;;;;5025986;28;20495;-56
2022/08/06 09:56:57;;;;;;;4.13;2.20;;;24.00;88.70;;;;;;5030289;28;20048;-56
2022/08/06 09:59:23;;;;;;;5.97;2.97;;;23.80;90.10;;;;;;5063739;28;20094;-55
2022/08/06 10:01:49;;;;;;;3.90;2.08;;;23.60;90.10;;;;;;5063063;28;20048;-56
2022/08/06 10:04:27;;;;;;;5.20;2.00;;;23.30;90.30;;;;;;5063863;28;20048;-56
2022/08/06 10:06:55;;;;;;;5.15;2.35;;;23.00;90.70;;;;;;5062530;28;20819;-57
2022/08/06 10:09:23;;;;;;;3.65;2.05;;;22.80;90.30;;;;;;5063177;28;20113;-56
2022/08/06 10:11:49;;;;;;;4.72;2.60;;;22.80;90.70;;;;;;5062541;28;20052;-56
2022/08/06 10:14:27;;;;;;;3.45;2.13;;;22.80;90.80;;;;;;5056332;28;20091;-57
2022/08/06 10:17:15;;;;;;;5.65;2.60;;;23.10;90.70;;;;;;5062800;28;20082;-57
2022/08/06 10:19:44;;;;;;;4.57;2.22;;;23.50;90.10;;;;;;5039651;28;20062;-56
2022/08/06 10:22:12;;;;;;;5.47;2.20;;;23.90;90.00;;;;;;5043930;28;20106;-56
2022/08/06 10:24:50;;;;;;;4.72;2.15;;;24.10;90.10;;;;;;5063136;28;20139;-55
2022/08/06 10:27:30;;;;;;;4.40;2.20;;;24.10;87.90;;;;;;5062775;28;20526;-57
2022/08/06 10:30:03;;;;;;;3.80;2.00;;;23.70;88.20;;;;;;5061102;28;20048;-56
2022/08/06 10:32:41;;;;;;;4.43;2.38;;;23.30;89.80;;;;;;5062807;28;20056;-56
2022/08/06 10:35:08;;;;;;;5.10;2.42;;;23.10;89.30;;;;;;5063736;28;20056;-56
2022/08/06 10:37:41;;;;;;;4.38;2.22;;;23.20;89.20;;;;;;5055958;28;20554;-57
2022/08/06 10:40:11;;;;;;;2.78;2.20;;;23.20;87.70;;;;;;5062416;28;20059;-56
2022/08/06 10:42:38;;;;;;;2.85;2.00;;;23.30;88.40;;;;;;5060612;28;20570;-56
2022/08/06 10:45:05;;;;;;;3.42;2.53;;;23.40;88.10;;;;;;5044699;28;20093;-55
2022/08/06 10:47:33;;;;;;;6.10;2.50;;;23.60;89.10;;;;;;5061999;28;20053;-54
2022/08/06 10:50:01;;;;;;;2.88;2.42;;;23.80;89.30;;;;;;5061449;28;20593;-56
2022/08/06 10:52:28;;;;;;;3.25;2.28;;;24.10;88.80;;;;;;5061265;28;20483;-59
2022/08/06 10:54:56;;;;;;;7.13;3.20;;;23.50;89.50;;;;;;5041209;28;20060;-59
2022/08/06 10:57:22;;;;;;;6.15;2.25;;;23.50;90.10;;;;;;5062518;28;20044;-56
2022/08/06 10:59:49;;;;;;;5.15;2.92;;;23.10;90.10;;;;;;5063707;28;20047;-57
2022/08/06 11:02:33;;;;;;;4.18;2.80;;;23.20;90.60;;;;;;5063473;28;20078;-59
2022/08/06 11:05:02;;;;;;;4.50;2.42;;;23.60;90.60;;;;;;5064432;28;20049;-56
2022/08/06 11:07:50;;;;;;;2.90;1.90;;;23.70;88.70;;;;;;5046073;28;20044;-55
2022/08/06 11:10:50;;;;;;;4.75;2.53;;;23.90;88.90;;;;;;5062574;28;20403;-56
2022/08/06 11:13:19;;;;;;;4.03;2.20;;;24.00;89.80;;;;;;5063217;28;20071;-55
2022/08/06 11:15:45;;;;;;;5.10;2.40;;;23.80;88.90;;;;;;5043919;28;20058;-56
2022/08/06 11:18:12;;;;;;;3.33;2.47;;;23.70;89.00;;;;;;5044335;28;20049;-57
2022/08/06 11:20:46;;;;;;;3.25;1.95;;;23.70;89.10;;;;;;5045465;28;20044;-57
2022/08/06 11:23:15;;;;;;;3.47;2.13;;;23.60;90.50;;;;;;5044368;28;20052;-56
2022/08/06 11:25:46;;;;;;;2.90;2.00;;;23.70;89.30;;;;;;5062822;28;20049;-57
2022/08/06 11:28:18;;;;;;;4.03;2.20;;;23.60;88.90;;;;;;5063504;28;20044;-57
2022/08/06 11:30:53;;;;;;;3.78;2.10;;;23.50;87.70;;;;;;5062330;28;20060;-57
2022/08/06 11:33:39;;;;;;;3.13;2.20;;;23.40;87.90;;;;;;5063396;28;20127;-57
2022/08/06 11:36:09;;;;;;;3.17;2.30;;;23.40;87.50;;;;;;5063041;28;20049;-62
2022/08/06 11:38:47;;;;;;;2.63;1.77;;;23.50;88.10;;;;;;5063554;28;20080;-56
2022/08/06 11:41:21;;;;;;;2.75;2.15;;;23.40;90.60;;;;;;5062195;28;20260;-57
2022/08/06 11:43:53;;;;;;;2.83;1.90;;;23.60;88.90;;;;;;5045373;28;20052;-56
2022/08/06 11:46:27;;;;;;;5.78;1.98;;;23.80;89.50;;;;;;5041744;28;20132;-56
2022/08/06 11:49:42;;;;;;;4.10;1.98;;;23.90;87.50;;;;;;5057841;28;20044;-57
2022/08/06 11:52:37;;;;;;;4.55;2.17;;;24.00;87.60;;;;;;4960991;28;20113;-56
2022/08/06 11:55:06;;;;;;;2.78;2.20;;;23.80;88.40;;;;;;4945820;28;20105;-57
2022/08/06 11:57:33;;;;;;;2.72;2.10;;;23.90;87.60;;;;;;4963219;28;20098;-57
2022/08/06 11:59:59;;;;;;;3.78;2.55;;;23.80;88.60;;;;;;4961396;28;20086;-57
2022/08/06 12:02:54;;;;;;;3.30;2.53;;;23.60;89.20;;;;;;4945481;28;20299;-57
2022/08/06 12:05:20;;;;;;;5.03;2.00;;;23.20;86.60;;;;;;4961373;28;20073;-57
2022/08/06 12:08:07;;;;;;;4.43;2.50;;;23.10;88.30;;;;;;4962045;28;20596;-57
2022/08/06 12:10:33;;;;;;;6.13;2.05;;;22.90;89.80;;;;;;4961659;28;20081;-57
2022/08/06 12:13:00;;;;;;;3.55;2.30;;;22.90;90.30;;;;;;4960948;28;20585;-57
2022/08/06 12:15:28;;;;;;;2.35;2.03;;;22.70;90.00;;;;;;4960524;28;20101;-57
2022/08/06 12:17:55;;;;;;;4.75;2.47;;;22.60;91.30;;;;;;4946370;28;20054;-57
2022/08/06 12:20:31;;;;;;;3.35;2.20;;;22.60;91.10;;;;;;4946236;28;20074;-58
2022/08/06 12:23:05;;;;;;;3.72;1.80;;;22.60;89.60;;;;;;4960745;28;20061;-58
2022/08/06 12:25:42;;;;;;;3.72;1.88;;;22.70;90.50;;;;;;4962406;28;20488;-58
2022/08/06 12:28:11;;;;;;;2.60;1.92;;;22.90;89.50;;;;;;4989036;28;20060;-58
2022/08/06 12:30:45;;;;;;;2.38;1.75;;;23.00;90.10;;;;;;5042314;28;20053;-56
2022/08/06 12:33:12;;;;;;;4.28;2.15;;;23.10;88.90;;;;;;5040872;28;20057;-57
2022/08/06 12:35:50;;;;;;;2.13;1.90;;;23.30;89.30;;;;;;5041803;28;20053;-57
2022/08/06 12:38:17;;;;;;;4.78;2.08;;;23.30;88.00;;;;;;5044282;28;20053;-56
2022/08/06 12:41:05;;;;;;;2.28;2.08;;;23.40;88.20;;;;;;5028862;28;20087;-57
2022/08/06 12:43:33;;;;;;;2.47;2.00;;;23.40;87.90;;;;;;5044135;28;20060;-57
2022/08/06 12:46:03;;;;;;;3.15;2.47;;;23.40;89.30;;;;;;5040600;28;20060;-57
2022/08/06 12:48:34;;;;;;;2.97;2.45;;;23.40;87.20;;;;;;5045971;28;20049;-57
2022/08/06 12:51:06;;;;;;;3.83;2.40;;;23.30;88.00;;;;;;5046720;28;20665;-56
2022/08/06 12:53:37;;;;;;;5.30;2.28;;;23.20;87.80;;;;;;5045489;28;20051;-57
2022/08/06 12:56:04;;;;;;;3.30;2.40;;;23.10;88.10;;;;;;5045777;28;20049;-57
2022/08/06 12:58:32;;;;;;;4.55;2.35;;;23.10;88.10;;;;;;5048216;28;20055;-57
2022/08/06 13:01:00;;;;;;;4.18;2.70;;;23.20;87.70;;;;;;5055544;28;20109;-57
2022/08/06 13:03:29;;;;;;;4.70;2.30;;;23.40;89.40;;;;;;5048379;28;20063;-57
2022/08/06 13:05:59;;;;;;;3.30;2.35;;;23.60;88.60;;;;;;5047951;28;20447;-57
2022/08/06 13:08:27;;;;;;;3.42;2.60;;;23.70;87.40;;;;;;5045407;28;20136;-57
2022/08/06 13:10:56;;;;;;;3.67;2.55;;;23.60;85.10;;;;;;5045610;28;20061;-57